createdAt,value
2019-05-01T00:00:50.117Z,0.00
2019-05-01T00:01:50.133Z,0.00
2019-05-01T00:02:50.103Z,0.00
2019-05-01T00:03:50.109Z,0.00
2019-05-01T00:04:50.075Z,0.00
2019-05-01T00:05:50.063Z,0.00
2019-05-01T00:06:50.069Z,0.00
2019-05-01T00:07:50.075Z,0.00
2019-05-01T00:08:50.034Z,0.00
2019-05-01T00:09:50.030Z,0.00
2019-05-01T00:10:50.012Z,0.00
2019-05-01T00:11:50.051Z,0.00
2019-05-01T00:12:49.988Z,0.00
2019-05-01T00:13:49.996Z,0.00
2019-05-01T00:14:49.970Z,0.00
2019-05-01T00:15:49.956Z,0.00
2019-05-01T00:16:49.961Z,0.00
2019-05-01T00:17:49.995Z,0.00
2019-05-01T00:18:49.924Z,0.00
2019-05-01T00:19:49.917Z,0.00
2019-05-01T00:20:49.928Z,0.00
2019-05-01T00:21:49.917Z,0.00
2019-05-01T00:22:49.882Z,0.00
2019-05-01T00:23:49.880Z,0.00
2019-05-01T00:24:49.872Z,0.00
2019-05-01T00:25:49.863Z,0.00
2019-05-01T00:26:49.863Z,0.00
2019-05-01T00:27:49.830Z,0.00
2019-05-01T00:28:49.850Z,0.00
2019-05-01T00:29:49.810Z,0.00
2019-05-01T00:30:49.800Z,0.00
2019-05-01T00:31:49.806Z,0.00
2019-05-01T00:32:49.778Z,0.00
2019-05-01T00:33:49.768Z,0.00
2019-05-01T00:34:49.758Z,0.00
2019-05-01T00:35:49.749Z,0.00
2019-05-01T00:36:49.758Z,0.00
2019-05-01T00:37:49.723Z,0.00
2019-05-01T00:38:49.724Z,0.00
2019-05-01T00:39:49.706Z,0.00
2019-05-01T00:40:49.691Z,0.00
2019-05-01T00:41:49.698Z,0.00
2019-05-01T00:42:49.676Z,0.00
2019-05-01T00:43:49.660Z,0.00
2019-05-01T00:44:49.659Z,0.00
2019-05-01T00:45:49.643Z,0.00
2019-05-01T00:46:49.649Z,0.00
2019-05-01T00:47:49.640Z,0.00
2019-05-01T00:48:49.606Z,0.00
2019-05-01T00:49:49.597Z,0.00
2019-05-01T00:50:49.588Z,0.00
2019-05-01T00:51:49.573Z,0.00
2019-05-01T00:52:49.582Z,0.00
2019-05-01T00:53:49.555Z,0.00
2019-05-01T00:54:49.552Z,0.00
2019-05-01T00:55:49.533Z,0.00
2019-05-01T00:56:49.549Z,0.00
2019-05-01T00:57:49.531Z,0.00
2019-05-01T00:58:49.502Z,0.00
2019-05-01T00:59:49.494Z,0.00
2019-05-01T01:00:49.484Z,0.00
2019-05-01T01:01:49.476Z,0.00
2019-05-01T01:02:49.474Z,0.00
2019-05-01T01:03:49.468Z,0.00
2019-05-01T01:04:49.463Z,0.00
2019-05-01T01:05:49.428Z,0.00
2019-05-01T01:06:49.421Z,0.00
2019-05-01T01:07:49.424Z,0.00
2019-05-01T01:08:49.398Z,0.00
2019-05-01T01:09:49.384Z,0.00
2019-05-01T01:10:49.374Z,0.00
2019-05-01T01:11:49.363Z,0.00
2019-05-01T01:12:49.370Z,0.00
2019-05-01T01:13:49.345Z,0.00
2019-05-01T01:14:49.335Z,0.00
2019-05-01T01:15:49.330Z,0.00
2019-05-01T01:16:49.307Z,0.00
2019-05-01T01:17:49.344Z,0.00
2019-05-01T01:18:49.291Z,0.00
2019-05-01T01:19:49.276Z,0.00
2019-05-01T01:20:49.268Z,0.00
2019-05-01T01:21:49.310Z,0.00
2019-05-01T01:22:49.264Z,0.00
2019-05-01T01:23:49.235Z,0.00
2019-05-01T01:24:49.226Z,0.00
2019-05-01T01:25:49.214Z,0.00
2019-05-01T01:26:49.206Z,0.00
2019-05-01T01:27:49.204Z,0.00
2019-05-01T01:28:49.181Z,0.00
2019-05-01T01:29:49.184Z,0.00
2019-05-01T01:30:56.165Z,0.00
2019-05-01T01:31:50.152Z,0.00
2019-05-01T01:32:49.158Z,0.00
2019-05-01T01:33:49.127Z,0.00
2019-05-01T01:34:49.122Z,0.00
2019-05-01T01:35:49.108Z,0.00
2019-05-01T01:36:49.104Z,0.00
2019-05-01T01:37:49.098Z,0.00
2019-05-01T01:38:49.075Z,0.00
2019-05-01T01:39:49.067Z,0.00
2019-05-01T01:40:49.051Z,0.00
2019-05-01T01:41:49.042Z,0.00
2019-05-01T01:42:49.070Z,0.00
2019-05-01T01:43:49.031Z,0.00
2019-05-01T01:44:49.007Z,0.00
2019-05-01T01:45:49.002Z,0.00
2019-05-01T01:46:48.986Z,0.00
2019-05-01T01:47:49.003Z,0.00
2019-05-01T01:48:48.984Z,0.00
2019-05-01T01:49:48.956Z,0.00
2019-05-01T01:50:48.968Z,0.00
2019-05-01T01:51:48.932Z,0.00
2019-05-01T01:52:48.921Z,0.00
2019-05-01T01:53:48.928Z,0.00
2019-05-01T01:54:48.898Z,0.00
2019-05-01T01:55:48.892Z,0.00
2019-05-01T01:56:48.896Z,0.00
2019-05-01T01:57:48.867Z,0.00
2019-05-01T01:58:48.873Z,0.00
2019-05-01T01:59:48.850Z,0.00
2019-05-01T02:00:48.832Z,0.00
2019-05-01T02:01:48.821Z,0.00
2019-05-01T02:02:48.819Z,0.00
2019-05-01T02:03:48.823Z,0.00
2019-05-01T02:04:48.809Z,0.00
2019-05-01T02:05:48.780Z,0.00
2019-05-01T02:06:48.777Z,0.00
2019-05-01T02:07:48.759Z,0.00
2019-05-01T02:08:56.301Z,0.00
2019-05-01T02:09:49.739Z,0.00
2019-05-01T02:10:48.727Z,0.00
2019-05-01T02:11:48.715Z,0.00
2019-05-01T02:12:48.726Z,0.00
2019-05-01T02:13:48.712Z,0.00
2019-05-01T02:14:48.687Z,0.00
2019-05-01T02:15:48.672Z,0.00
2019-05-01T02:16:48.678Z,0.00
2019-05-01T02:17:48.655Z,0.00
2019-05-01T02:18:48.659Z,0.00
2019-05-01T02:19:48.631Z,0.00
2019-05-01T02:20:48.626Z,0.00
2019-05-01T02:21:48.606Z,0.00
2019-05-01T02:22:48.597Z,0.00
2019-05-01T02:23:48.623Z,0.00
2019-05-01T02:24:48.574Z,0.00
2019-05-01T02:25:48.567Z,0.00
2019-05-01T02:26:48.569Z,0.00
2019-05-01T02:27:48.548Z,0.00
2019-05-01T02:28:48.551Z,0.00
2019-05-01T02:29:48.524Z,0.00
2019-05-01T02:30:48.513Z,0.00
2019-05-01T02:31:48.509Z,0.00
2019-05-01T02:32:48.514Z,0.00
2019-05-01T02:33:48.511Z,0.00
2019-05-01T02:34:48.547Z,0.00
2019-05-01T02:35:48.458Z,0.00
2019-05-01T02:36:48.453Z,0.00
2019-05-01T02:37:48.439Z,0.00
2019-05-01T02:38:48.424Z,0.00
2019-05-01T02:39:48.430Z,0.00
2019-05-01T02:40:48.407Z,0.00
2019-05-01T02:41:48.411Z,0.00
2019-05-01T02:42:48.387Z,0.00
2019-05-01T02:43:48.373Z,0.00
2019-05-01T02:44:48.383Z,0.00
2019-05-01T02:45:48.351Z,0.00
2019-05-01T02:46:48.341Z,0.00
2019-05-01T02:47:48.331Z,0.00
2019-05-01T02:48:48.318Z,0.00
2019-05-01T02:49:48.320Z,0.00
2019-05-01T02:50:48.314Z,0.00
2019-05-01T02:51:48.286Z,0.00
2019-05-01T02:52:48.274Z,0.00
2019-05-01T02:53:48.263Z,0.00
2019-05-01T02:54:48.276Z,0.00
2019-05-01T02:55:48.241Z,0.00
2019-05-01T02:56:48.247Z,0.00
2019-05-01T02:57:48.223Z,0.00
2019-05-01T02:58:48.216Z,0.00
2019-05-01T02:59:48.230Z,0.00
2019-05-01T03:00:48.190Z,0.00
2019-05-01T03:01:48.277Z,0.00
2019-05-01T03:02:48.168Z,0.00
2019-05-01T03:03:48.165Z,0.00
2019-05-01T03:04:48.160Z,0.00
2019-05-01T03:05:48.168Z,0.00
2019-05-01T03:06:48.129Z,0.00
2019-05-01T03:07:48.333Z,0.00
2019-05-01T03:08:48.104Z,0.00
2019-05-01T03:09:48.112Z,0.00
2019-05-01T03:10:48.094Z,0.00
2019-05-01T03:11:48.071Z,0.00
2019-05-01T03:12:48.059Z,0.00
2019-05-01T03:13:48.126Z,0.00
2019-05-01T03:14:48.057Z,0.00
2019-05-01T03:15:48.030Z,0.00
2019-05-01T03:16:48.017Z,0.00
2019-05-01T03:17:48.007Z,0.00
2019-05-01T03:18:48.018Z,0.00
2019-05-01T03:19:48.004Z,0.00
2019-05-01T03:20:47.973Z,0.00
2019-05-01T03:21:47.962Z,0.00
2019-05-01T03:22:47.959Z,0.00
2019-05-01T03:23:47.943Z,0.00
2019-05-01T03:24:47.961Z,0.00
2019-05-01T03:25:47.921Z,0.00
2019-05-01T03:26:47.910Z,0.00
2019-05-01T03:27:47.907Z,0.00
2019-05-01T03:28:48.109Z,0.00
2019-05-01T03:29:47.876Z,0.00
2019-05-01T03:30:47.883Z,0.00
2019-05-01T03:32:14.619Z,0.00
2019-05-01T03:32:48.848Z,0.00
2019-05-01T03:33:47.847Z,4.00
2019-05-01T03:34:52.411Z,4.00
2019-05-01T03:35:48.844Z,4.00
2019-05-01T03:36:47.800Z,0.00
2019-05-01T03:37:47.789Z,4.00
2019-05-01T03:38:47.782Z,4.00
2019-05-01T03:39:47.800Z,4.00
2019-05-01T03:40:47.784Z,4.00
2019-05-01T03:41:47.750Z,8.00
2019-05-01T03:42:47.738Z,8.00
2019-05-01T03:43:47.723Z,8.00
2019-05-01T03:44:47.788Z,12.00
2019-05-01T03:45:47.725Z,12.00
2019-05-01T03:46:47.693Z,16.00
2019-05-01T03:47:47.683Z,16.00
2019-05-01T03:48:47.688Z,20.00
2019-05-01T03:49:47.890Z,24.00
2019-05-01T03:50:47.725Z,20.00
2019-05-01T03:51:47.640Z,28.00
2019-05-01T03:52:47.633Z,32.00
2019-05-01T03:53:47.618Z,32.00
2019-05-01T03:54:47.610Z,40.00
2019-05-01T03:55:47.618Z,44.00
2019-05-01T03:56:47.617Z,48.00
2019-05-01T03:57:47.578Z,56.00
2019-05-01T03:58:47.565Z,60.00
2019-05-01T03:59:47.558Z,68.00
2019-05-01T04:00:47.573Z,76.00
2019-05-01T04:01:47.531Z,84.00
2019-05-01T04:02:47.523Z,92.00
2019-05-01T04:03:47.510Z,104.00
2019-05-01T04:04:47.501Z,112.00
2019-05-01T04:05:47.528Z,120.00
2019-05-01T04:06:47.483Z,132.00
2019-05-01T04:07:47.472Z,140.00
2019-05-01T04:08:47.482Z,148.00
2019-05-01T04:09:47.501Z,164.00
2019-05-01T04:10:47.554Z,172.00
2019-05-01T04:11:47.425Z,180.00
2019-05-01T04:12:47.444Z,192.00
2019-05-01T04:13:47.438Z,208.00
2019-05-01T04:14:47.428Z,220.00
2019-05-01T04:15:47.515Z,232.00
2019-05-01T04:16:47.508Z,248.00
2019-05-01T04:17:47.372Z,260.00
2019-05-01T04:18:47.353Z,272.00
2019-05-01T04:19:47.377Z,296.00
2019-05-01T04:20:47.363Z,304.00
2019-05-01T04:21:47.379Z,292.00
2019-05-01T04:22:47.309Z,244.00
2019-05-01T04:23:47.382Z,236.00
2019-05-01T04:24:47.338Z,248.00
2019-05-01T04:25:47.321Z,264.00
2019-05-01T04:26:47.268Z,272.00
2019-05-01T04:27:47.274Z,280.00
2019-05-01T04:28:47.248Z,296.00
2019-05-01T04:29:47.237Z,300.00
2019-05-01T04:30:47.218Z,312.00
2019-05-01T04:31:47.307Z,328.00
2019-05-01T04:32:52.730Z,356.00
2019-05-01T04:33:48.201Z,372.00
2019-05-01T04:34:47.175Z,388.00
2019-05-01T04:35:47.179Z,408.00
2019-05-01T04:36:47.172Z,424.00
2019-05-01T04:37:47.150Z,444.00
2019-05-01T04:38:47.146Z,468.00
2019-05-01T04:39:47.124Z,492.00
2019-05-01T04:40:47.113Z,504.00
2019-05-01T04:41:47.159Z,520.00
2019-05-01T04:42:47.144Z,540.00
2019-05-01T04:43:47.156Z,544.00
2019-05-01T04:44:47.139Z,556.00
2019-05-01T04:45:47.132Z,564.00
2019-05-01T04:46:47.078Z,576.00
2019-05-01T04:47:47.039Z,596.00
2019-05-01T04:48:47.033Z,612.00
2019-05-01T04:49:47.018Z,624.00
2019-05-01T04:50:47.066Z,620.00
2019-05-01T04:51:48.090Z,632.00
2019-05-01T04:52:47.024Z,656.00
2019-05-01T04:53:46.995Z,688.00
2019-05-01T04:54:46.965Z,708.00
2019-05-01T04:55:46.963Z,732.00
2019-05-01T04:56:46.960Z,736.00
2019-05-01T04:57:46.975Z,756.00
2019-05-01T04:58:46.918Z,780.00
2019-05-01T04:59:46.920Z,792.00
2019-05-01T05:00:46.904Z,796.00
2019-05-01T05:01:46.957Z,800.00
2019-05-01T05:02:46.909Z,824.00
2019-05-01T05:03:46.874Z,856.00
2019-05-01T05:04:46.861Z,900.00
2019-05-01T05:05:46.869Z,920.00
2019-05-01T05:06:46.886Z,916.00
2019-05-01T05:07:46.870Z,956.00
2019-05-01T05:08:46.821Z,976.00
2019-05-01T05:09:47.653Z,1032.00
2019-05-01T05:10:46.797Z,1064.00
2019-05-01T05:11:46.809Z,1092.00
2019-05-01T05:12:46.838Z,1116.00
2019-05-01T05:13:47.157Z,1092.00
2019-05-01T05:14:47.602Z,1084.00
2019-05-01T05:15:46.797Z,1112.00
2019-05-01T05:16:46.755Z,1124.00
2019-05-01T05:17:46.777Z,1160.00
2019-05-01T05:18:46.726Z,1268.00
2019-05-01T05:19:46.712Z,1312.00
2019-05-01T05:20:46.679Z,1292.00
2019-05-01T05:21:46.671Z,1296.00
2019-05-01T05:22:46.694Z,1268.00
2019-05-01T05:23:46.709Z,1336.00
2019-05-01T05:24:46.638Z,1428.00
2019-05-01T05:25:46.645Z,1484.00
2019-05-01T05:26:46.616Z,1524.00
2019-05-01T05:27:46.648Z,1540.00
2019-05-01T05:28:46.597Z,1556.00
2019-05-01T05:29:46.594Z,1588.00
2019-05-01T05:30:46.607Z,1660.00
2019-05-01T05:31:46.568Z,1680.00
2019-05-01T05:32:46.625Z,1692.00
2019-05-01T05:33:46.541Z,1732.00
2019-05-01T05:34:46.579Z,1788.00
2019-05-01T05:35:46.527Z,1816.00
2019-05-01T05:36:46.542Z,1856.00
2019-05-01T05:37:46.579Z,1956.00
2019-05-01T05:38:46.527Z,2012.00
2019-05-01T05:39:46.495Z,2012.00
2019-05-01T05:40:46.466Z,1996.00
2019-05-01T05:41:46.503Z,2028.00
2019-05-01T05:42:46.567Z,2004.00
2019-05-01T05:43:46.440Z,2040.00
2019-05-01T05:44:46.434Z,2116.00
2019-05-01T05:45:46.496Z,2124.00
2019-05-01T05:46:46.405Z,2100.00
2019-05-01T05:47:46.406Z,2092.00
2019-05-01T05:48:46.459Z,2060.00
2019-05-01T05:49:46.409Z,1956.00
2019-05-01T05:50:46.392Z,1976.00
2019-05-01T05:51:46.366Z,2064.00
2019-05-01T05:52:46.370Z,2108.00
2019-05-01T05:53:46.332Z,2068.00
2019-05-01T05:54:46.320Z,2092.00
2019-05-01T05:55:46.308Z,2124.00
2019-05-01T05:56:46.307Z,2176.00
2019-05-01T05:57:46.315Z,2208.00
2019-05-01T05:58:46.276Z,2228.00
2019-05-01T05:59:46.271Z,2240.00
2019-05-01T06:00:46.269Z,2232.00
2019-05-01T06:01:46.310Z,2248.00
2019-05-01T06:02:46.234Z,2320.00
2019-05-01T06:03:46.238Z,2384.00
2019-05-01T06:04:46.269Z,2504.00
2019-05-01T06:05:46.211Z,2596.00
2019-05-01T06:06:46.191Z,2672.00
2019-05-01T06:07:46.215Z,2808.00
2019-05-01T06:08:46.186Z,2816.00
2019-05-01T06:09:48.458Z,2632.00
2019-05-01T06:10:46.227Z,2516.00
2019-05-01T06:11:46.201Z,2704.00
2019-05-01T06:12:46.766Z,2896.00
2019-05-01T06:13:46.129Z,2892.00
2019-05-01T06:14:46.121Z,2916.00
2019-05-01T06:15:48.995Z,3012.00
2019-05-01T06:16:46.986Z,3064.00
2019-05-01T06:17:47.162Z,3120.00
2019-05-01T06:18:46.143Z,3180.00
2019-05-01T06:19:49.741Z,3360.00
2019-05-01T06:20:46.037Z,3460.00
2019-05-01T06:21:46.028Z,3376.00
2019-05-01T06:22:46.236Z,3232.00
2019-05-01T06:23:46.022Z,3240.00
2019-05-01T06:24:46.008Z,3320.00
2019-05-01T06:25:45.988Z,3496.00
2019-05-01T06:26:45.973Z,3420.00
2019-05-01T06:27:49.356Z,3324.00
2019-05-01T06:28:45.966Z,3444.00
2019-05-01T06:29:45.939Z,3652.00
2019-05-01T06:30:47.012Z,3848.00
2019-05-01T06:31:45.920Z,3780.00
2019-05-01T06:32:45.906Z,3972.00
2019-05-01T06:33:48.630Z,4384.00
2019-05-01T06:34:46.880Z,4324.00
2019-05-01T06:35:45.873Z,4496.00
2019-05-01T06:36:49.528Z,4876.00
2019-05-01T06:37:46.850Z,4788.00
2019-05-01T06:38:45.844Z,4488.00
2019-05-01T06:39:48.057Z,4668.00
2019-05-01T06:40:45.820Z,4936.00
2019-05-01T06:41:45.813Z,5136.00
2019-05-01T06:42:45.810Z,4764.00
2019-05-01T06:43:45.788Z,4528.00
2019-05-01T06:44:45.796Z,4740.00
2019-05-01T06:45:46.954Z,5244.00
2019-05-01T06:46:46.771Z,5380.00
2019-05-01T06:47:45.745Z,5116.00
2019-05-01T06:48:48.810Z,4784.00
2019-05-01T06:49:46.736Z,4892.00
2019-05-01T06:50:45.715Z,5196.00
2019-05-01T06:51:48.098Z,5128.00
2019-05-01T06:52:46.687Z,4964.00
2019-05-01T06:53:45.677Z,5088.00
2019-05-01T06:54:47.733Z,5584.00
2019-05-01T06:55:46.653Z,5296.00
2019-05-01T06:56:45.648Z,4984.00
2019-05-01T06:57:45.735Z,5188.00
2019-05-01T06:58:45.621Z,5116.00
2019-05-01T06:59:45.637Z,5112.00
2019-05-01T07:00:45.613Z,5316.00
2019-05-01T07:01:45.807Z,5680.00
2019-05-01T07:02:45.580Z,5752.00
2019-05-01T07:03:49.762Z,5708.00
2019-05-01T07:04:46.573Z,5732.00
2019-05-01T07:05:49.169Z,5732.00
2019-05-01T07:06:46.539Z,5892.00
2019-05-01T07:07:47.999Z,5944.00
2019-05-01T07:08:46.514Z,6048.00
2019-05-01T07:09:49.330Z,6192.00
2019-05-01T07:10:46.509Z,6364.00
2019-05-01T07:11:47.394Z,6304.00
2019-05-01T07:12:46.471Z,6040.00
2019-05-01T07:13:45.469Z,5536.00
2019-05-01T07:14:47.082Z,5100.00
2019-05-01T07:15:46.437Z,5272.00
2019-05-01T07:16:45.429Z,5672.00
2019-05-01T07:17:47.865Z,5892.00
2019-05-01T07:18:45.408Z,5700.00
2019-05-01T07:19:45.441Z,5480.00
2019-05-01T07:20:47.291Z,5372.00
2019-05-01T07:21:46.370Z,5484.00
2019-05-01T07:22:45.567Z,5784.00
2019-05-01T07:23:47.767Z,5932.00
2019-05-01T07:24:49.008Z,5728.00
2019-05-01T07:25:45.330Z,5516.00
2019-05-01T07:26:48.033Z,5808.00
2019-05-01T07:27:45.318Z,6004.00
2019-05-01T07:28:45.295Z,5840.00
2019-05-01T07:29:46.674Z,5764.00
2019-05-01T07:30:45.287Z,5612.00
2019-05-01T07:31:45.262Z,5224.00
2019-05-01T07:32:45.261Z,4948.00
2019-05-01T07:33:47.038Z,5104.00
2019-05-01T07:34:48.881Z,5452.00
2019-05-01T07:35:45.222Z,5428.00
2019-05-01T07:36:45.566Z,5188.00
2019-05-01T07:37:45.217Z,5228.00
2019-05-01T07:38:45.193Z,5516.00
2019-05-01T07:39:49.858Z,5680.00
2019-05-01T07:40:46.185Z,5588.00
2019-05-01T07:41:45.156Z,5556.00
2019-05-01T07:42:48.202Z,5672.00
2019-05-01T07:43:45.144Z,5716.00
2019-05-01T07:44:45.129Z,5504.00
2019-05-01T07:45:45.159Z,5740.00
2019-05-01T07:46:48.966Z,6244.00
2019-05-01T07:47:46.091Z,6528.00
2019-05-01T07:48:45.079Z,6464.00
2019-05-01T07:49:47.767Z,6280.00
2019-05-01T07:50:46.095Z,6316.00
2019-05-01T07:51:45.049Z,6508.00
2019-05-01T07:52:47.763Z,6160.00
2019-05-01T07:53:46.028Z,6004.00
2019-05-01T07:54:47.125Z,6076.00
2019-05-01T07:55:48.593Z,6420.00
2019-05-01T07:56:45.076Z,6432.00
2019-05-01T07:57:44.990Z,6292.00
2019-05-01T07:58:47.470Z,6040.00
2019-05-01T07:59:45.995Z,5784.00
2019-05-01T08:00:44.974Z,6192.00
2019-05-01T08:01:44.992Z,6148.00
2019-05-01T08:02:44.973Z,5860.00
2019-05-01T08:03:44.950Z,5464.00
2019-05-01T08:04:45.626Z,5364.00
2019-05-01T08:05:45.386Z,5708.00
2019-05-01T08:06:44.963Z,6136.00
2019-05-01T08:07:44.913Z,6212.00
2019-05-01T08:08:44.868Z,5992.00
2019-05-01T08:09:45.924Z,5980.00
2019-05-01T08:10:45.882Z,5756.00
2019-05-01T08:11:45.532Z,5668.00
2019-05-01T08:12:45.250Z,6156.00
2019-05-01T08:13:44.872Z,6820.00
2019-05-01T08:14:47.699Z,6988.00
2019-05-01T08:15:45.900Z,6664.00
2019-05-01T08:16:44.840Z,6472.00
2019-05-01T08:17:48.738Z,6504.00
2019-05-01T08:18:45.758Z,6572.00
2019-05-01T08:19:44.785Z,6916.00
2019-05-01T08:20:45.842Z,6964.00
2019-05-01T08:21:44.781Z,6648.00
2019-05-01T08:22:44.714Z,6404.00
2019-05-01T08:23:47.183Z,6444.00
2019-05-01T08:24:44.704Z,6856.00
2019-05-01T08:25:44.680Z,7404.00
2019-05-01T08:26:45.964Z,7568.00
2019-05-01T08:27:44.681Z,7572.00
2019-05-01T08:28:44.691Z,7700.00
2019-05-01T08:29:44.637Z,7844.00
2019-05-01T08:30:47.971Z,7552.00
2019-05-01T08:31:45.645Z,7200.00
2019-05-01T08:32:44.662Z,7096.00
2019-05-01T08:33:49.300Z,7572.00
2019-05-01T08:34:49.279Z,8100.00
2019-05-01T08:35:44.590Z,8056.00
2019-05-01T08:36:47.313Z,8084.00
2019-05-01T08:37:44.552Z,7800.00
2019-05-01T08:38:44.537Z,7532.00
2019-05-01T08:39:45.900Z,7552.00
2019-05-01T08:40:44.565Z,7788.00
2019-05-01T08:41:44.607Z,7648.00
2019-05-01T08:42:44.544Z,7192.00
2019-05-01T08:43:44.482Z,6828.00
2019-05-01T08:44:44.509Z,6792.00
2019-05-01T08:45:44.469Z,7036.00
2019-05-01T08:46:49.274Z,7256.00
2019-05-01T08:47:45.453Z,7228.00
2019-05-01T08:48:44.433Z,6992.00
2019-05-01T08:49:49.384Z,7032.00
2019-05-01T08:50:45.405Z,7336.00
2019-05-01T08:51:44.422Z,7648.00
2019-05-01T08:52:47.396Z,7536.00
2019-05-01T08:53:44.373Z,7304.00
2019-05-01T08:54:44.364Z,7400.00
2019-05-01T08:55:45.153Z,7864.00
2019-05-01T08:56:44.360Z,8272.00
2019-05-01T08:57:44.347Z,8452.00
2019-05-01T08:58:44.760Z,8468.00
2019-05-01T08:59:44.319Z,8344.00
2019-05-01T09:00:44.299Z,8748.00
2019-05-01T09:01:50.199Z,9752.00
2019-05-01T09:02:45.299Z,10232.00
2019-05-01T09:03:44.266Z,9856.00
2019-05-01T09:04:44.261Z,9800.00
2019-05-01T09:05:44.251Z,9596.00
2019-05-01T09:06:45.246Z,9304.00
2019-05-01T09:07:44.433Z,9544.00
2019-05-01T09:08:44.235Z,10268.00
2019-05-01T09:09:45.317Z,11112.00
2019-05-01T09:10:44.192Z,11472.00
2019-05-01T09:11:44.182Z,11328.00
2019-05-01T09:12:46.893Z,11036.00
2019-05-01T09:13:44.163Z,10904.00
2019-05-01T09:14:44.149Z,10876.00
2019-05-01T09:15:48.331Z,10856.00
2019-05-01T09:16:45.124Z,10492.00
2019-05-01T09:17:44.131Z,10100.00
2019-05-01T09:18:44.106Z,10052.00
2019-05-01T09:19:44.091Z,9800.00
2019-05-01T09:20:44.156Z,10004.00
2019-05-01T09:21:44.077Z,10428.00
2019-05-01T09:22:44.245Z,10596.00
2019-05-01T09:23:46.233Z,10508.00
2019-05-01T09:24:45.052Z,10460.00
2019-05-01T09:25:44.029Z,10756.00
2019-05-01T09:26:45.481Z,11124.00
2019-05-01T09:27:45.026Z,11460.00
2019-05-01T09:28:44.039Z,11712.00
2019-05-01T09:29:46.873Z,12088.00
2019-05-01T09:30:44.996Z,12180.00
2019-05-01T09:31:43.968Z,12360.00
2019-05-01T09:32:45.857Z,12488.00
2019-05-01T09:33:44.997Z,12392.00
2019-05-01T09:34:43.954Z,12060.00
2019-05-01T09:35:45.351Z,11496.00
2019-05-01T09:36:43.933Z,10580.00
2019-05-01T09:37:43.919Z,9656.00
2019-05-01T09:38:43.905Z,10192.00
2019-05-01T09:39:43.874Z,12148.00
2019-05-01T09:40:43.865Z,12564.00
2019-05-01T09:41:47.394Z,11808.00
2019-05-01T09:42:43.845Z,10944.00
2019-05-01T09:43:43.846Z,11212.00
2019-05-01T09:44:43.821Z,11736.00
2019-05-01T09:45:43.808Z,12284.00
2019-05-01T09:46:43.798Z,12028.00
2019-05-01T09:47:43.803Z,11492.00
2019-05-01T09:48:43.793Z,10888.00
2019-05-01T09:49:43.769Z,10864.00
2019-05-01T09:50:43.755Z,11596.00
2019-05-01T09:51:47.457Z,12720.00
2019-05-01T09:52:44.749Z,12700.00
2019-05-01T09:53:43.744Z,11792.00
2019-05-01T09:54:46.684Z,10604.00
2019-05-01T09:55:43.702Z,11016.00
2019-05-01T09:56:43.709Z,11232.00
2019-05-01T09:57:43.708Z,10452.00
2019-05-01T09:58:43.687Z,10252.00
2019-05-01T09:59:43.657Z,10364.00
2019-05-01T10:00:43.643Z,10600.00
2019-05-01T10:01:43.651Z,10728.00
2019-05-01T10:02:43.957Z,10820.00
2019-05-01T10:03:44.951Z,11196.00
2019-05-01T10:04:43.617Z,10704.00
2019-05-01T10:05:44.192Z,9740.00
2019-05-01T10:06:47.552Z,8716.00
2019-05-01T10:07:44.568Z,8620.00
2019-05-01T10:08:43.603Z,8368.00
2019-05-01T10:09:47.377Z,8028.00
2019-05-01T10:10:44.536Z,7644.00
2019-05-01T10:11:43.527Z,7144.00
2019-05-01T10:12:46.864Z,6868.00
2019-05-01T10:13:43.529Z,6600.00
2019-05-01T10:14:43.514Z,6592.00
2019-05-01T10:15:43.487Z,6644.00
2019-05-01T10:16:43.479Z,6592.00
2019-05-01T10:17:43.465Z,6632.00
2019-05-01T10:18:43.473Z,6832.00
2019-05-01T10:19:43.447Z,6980.00
2019-05-01T10:20:43.429Z,6948.00
2019-05-01T10:21:43.420Z,7316.00
2019-05-01T10:22:43.417Z,7236.00
2019-05-01T10:23:47.032Z,7188.00
2019-05-01T10:24:44.439Z,7664.00
2019-05-01T10:25:47.944Z,9124.00
2019-05-01T10:26:43.453Z,9600.00
2019-05-01T10:27:43.356Z,8680.00
2019-05-01T10:28:44.982Z,7324.00
2019-05-01T10:29:44.346Z,6060.00
2019-05-01T10:30:43.408Z,5036.00
2019-05-01T10:31:46.600Z,5136.00
2019-05-01T10:32:43.328Z,5484.00
2019-05-01T10:33:43.398Z,5712.00
2019-05-01T10:34:44.576Z,5492.00
2019-05-01T10:35:43.513Z,5912.00
2019-05-01T10:36:43.292Z,5904.00
2019-05-01T10:37:43.274Z,5980.00
2019-05-01T10:38:45.080Z,6560.00
2019-05-01T10:39:43.230Z,6940.00
2019-05-01T10:40:43.243Z,6700.00
2019-05-01T10:41:46.261Z,6416.00
2019-05-01T10:42:43.219Z,6052.00
2019-05-01T10:43:43.211Z,5664.00
2019-05-01T10:44:43.170Z,5644.00
2019-05-01T10:45:43.159Z,5924.00
2019-05-01T10:46:43.166Z,6096.00
2019-05-01T10:47:43.155Z,6376.00
2019-05-01T10:48:43.126Z,6352.00
2019-05-01T10:49:43.141Z,5964.00
2019-05-01T10:50:43.105Z,5640.00
2019-05-01T10:51:43.089Z,5444.00
2019-05-01T10:52:43.080Z,5272.00
2019-05-01T10:53:43.352Z,5228.00
2019-05-01T10:54:43.075Z,5216.00
2019-05-01T10:55:43.049Z,5228.00
2019-05-01T10:56:43.042Z,5292.00
2019-05-01T10:57:43.035Z,5332.00
2019-05-01T10:58:43.018Z,5244.00
2019-05-01T10:59:43.026Z,5152.00
2019-05-01T11:00:42.992Z,5128.00
2019-05-01T11:01:42.989Z,5116.00
2019-05-01T11:02:42.969Z,5164.00
2019-05-01T11:03:42.967Z,5188.00
2019-05-01T11:04:42.970Z,5180.00
2019-05-01T11:05:55.298Z,5208.00
2019-05-01T11:06:43.926Z,5324.00
2019-05-01T11:07:42.918Z,5428.00
2019-05-01T11:08:42.905Z,5328.00
2019-05-01T11:09:42.918Z,5180.00
2019-05-01T11:10:42.890Z,5116.00
2019-05-01T11:11:42.904Z,5088.00
2019-05-01T11:12:42.906Z,5064.00
2019-05-01T11:13:42.916Z,5116.00
2019-05-01T11:14:43.001Z,5148.00
2019-05-01T11:15:42.885Z,5164.00
2019-05-01T11:16:42.816Z,5180.00
2019-05-01T11:17:42.810Z,5156.00
2019-05-01T11:18:42.799Z,5180.00
2019-05-01T11:19:42.820Z,5180.00
2019-05-01T11:20:42.776Z,5124.00
2019-05-01T11:21:42.870Z,5164.00
2019-05-01T11:22:42.792Z,5176.00
2019-05-01T11:23:42.741Z,5244.00
2019-05-01T11:24:42.749Z,5276.00
2019-05-01T11:25:44.661Z,5248.00
2019-05-01T11:26:42.733Z,5232.00
2019-05-01T11:27:42.705Z,5228.00
2019-05-01T11:28:42.764Z,5232.00
2019-05-01T11:29:42.758Z,5228.00
2019-05-01T11:30:42.670Z,5204.00
2019-05-01T11:31:42.691Z,5216.00
2019-05-01T11:32:42.643Z,5152.00
2019-05-01T11:33:42.642Z,5132.00
2019-05-01T11:34:42.636Z,5144.00
2019-05-01T11:35:42.611Z,5144.00
2019-05-01T11:36:42.821Z,5140.00
2019-05-01T11:37:42.608Z,5176.00
2019-05-01T11:38:42.606Z,5228.00
2019-05-01T11:39:42.583Z,5304.00
2019-05-01T11:40:42.556Z,5340.00
2019-05-01T11:41:42.562Z,5744.00
2019-05-01T11:42:42.535Z,7200.00
2019-05-01T11:43:42.534Z,8776.00
2019-05-01T11:44:42.527Z,7652.00
2019-05-01T11:45:42.514Z,6332.00
2019-05-01T11:46:42.491Z,5896.00
2019-05-01T11:47:42.483Z,5780.00
2019-05-01T11:48:44.403Z,5740.00
2019-05-01T11:49:42.495Z,5596.00
2019-05-01T11:50:42.506Z,5532.00
2019-05-01T11:51:42.462Z,5512.00
2019-05-01T11:52:42.460Z,5516.00
2019-05-01T11:53:42.487Z,5512.00
2019-05-01T11:54:42.432Z,5588.00
2019-05-01T11:55:42.531Z,5688.00
2019-05-01T11:56:42.442Z,5604.00
2019-05-01T11:57:42.424Z,5520.00
2019-05-01T11:58:42.379Z,5612.00
2019-05-01T11:59:42.380Z,5588.00
2019-05-01T12:00:42.431Z,5596.00
2019-05-01T12:01:42.375Z,5508.00
2019-05-01T12:02:42.338Z,5544.00
2019-05-01T12:03:42.312Z,5444.00
2019-05-01T12:04:42.323Z,5532.00
2019-05-01T12:05:42.349Z,5624.00
2019-05-01T12:06:42.322Z,5692.00
2019-05-01T12:07:42.301Z,5800.00
2019-05-01T12:08:42.549Z,5820.00
2019-05-01T12:09:42.594Z,5824.00
2019-05-01T12:10:42.306Z,5888.00
2019-05-01T12:11:42.334Z,5928.00
2019-05-01T12:12:42.216Z,6000.00
2019-05-01T12:13:43.954Z,5968.00
2019-05-01T12:14:42.285Z,6000.00
2019-05-01T12:15:42.234Z,6276.00
2019-05-01T12:16:42.214Z,6444.00
2019-05-01T12:17:42.159Z,6588.00
2019-05-01T12:18:42.228Z,6676.00
2019-05-01T12:19:42.152Z,6896.00
2019-05-01T12:20:42.268Z,7176.00
2019-05-01T12:21:42.182Z,8348.00
2019-05-01T12:22:42.126Z,13260.00
2019-05-01T12:23:42.376Z,16736.00
2019-05-01T12:24:42.086Z,13512.00
2019-05-01T12:25:42.095Z,9856.00
2019-05-01T12:26:42.057Z,9352.00
2019-05-01T12:27:42.103Z,8616.00